Time;durP1;ratioP1;P1;durP2;ratioP2;P2;SDS_P1;SDS_P2;PMS_P1;PMS_P2;Temp;Humidity;BMP_temperature;BMP_pressure;BME280_temperature;BME280_humidity;BME280_pressure;Samples;Min_cycle;Max_cycle;Signal;HPM_P1;HPM_P2
2022/03/06 00:02:16;;;;;;;18.65;9.88;;;4.30;93.80;;;;;;5098841;28;20128;-78
2022/03/06 00:04:42;;;;;;;17.65;9.57;;;4.50;93.70;;;;;;5098300;28;20482;-78
2022/03/06 00:07:08;;;;;;;15.48;9.10;;;4.40;93.60;;;;;;5098793;28;20054;-78
2022/03/06 00:09:33;;;;;;;17.48;9.15;;;4.40;93.70;;;;;;5098444;28;20044;-78
2022/03/06 00:11:59;;;;;;;14.70;9.10;;;4.50;93.60;;;;;;5115612;28;20386;-78
2022/03/06 00:14:24;;;;;;;18.27;9.38;;;4.60;93.60;;;;;;5065062;28;20474;-78
2022/03/06 00:16:53;;;;;;;14.90;9.00;;;4.60;93.70;;;;;;5098519;28;20047;-78
2022/03/06 00:19:19;;;;;;;17.48;9.45;;;4.70;93.70;;;;;;5098512;28;20040;-78
2022/03/06 00:21:45;;;;;;;18.25;10.23;;;4.80;93.60;;;;;;5115232;28;20452;-78
2022/03/06 00:24:11;;;;;;;18.75;9.73;;;4.80;93.40;;;;;;5115454;28;20047;-78
2022/03/06 00:26:37;;;;;;;18.73;10.23;;;4.90;93.50;;;;;;5113962;28;20046;-78
2022/03/06 00:29:03;;;;;;;18.38;9.45;;;4.90;93.40;;;;;;5114705;28;20077;-78
2022/03/06 00:31:29;;;;;;;17.58;9.93;;;4.80;93.50;;;;;;5098172;28;20055;-78
2022/03/06 00:33:55;;;;;;;18.48;10.95;;;4.70;93.50;;;;;;5114456;28;20075;-78
2022/03/06 00:36:21;;;;;;;17.65;9.75;;;4.70;93.60;;;;;;5097811;28;20054;-78
2022/03/06 00:38:47;;;;;;;14.80;9.23;;;4.70;93.60;;;;;;5115020;28;20050;-78
2022/03/06 00:41:14;;;;;;;17.15;9.05;;;4.70;93.70;;;;;;5115031;28;20088;-78
2022/03/06 00:43:40;;;;;;;17.00;9.55;;;4.70;93.70;;;;;;5097982;28;20047;-78
2022/03/06 00:46:06;;;;;;;21.00;9.18;;;4.80;93.70;;;;;;5097980;28;20047;-78
2022/03/06 00:48:32;;;;;;;17.48;9.13;;;4.80;93.60;;;;;;5114758;28;20050;-78
2022/03/06 00:50:58;;;;;;;12.43;8.15;;;4.90;93.50;;;;;;5098216;28;20172;-78
2022/03/06 00:53:24;;;;;;;15.63;8.60;;;4.80;93.60;;;;;;5080904;28;20050;-78
2022/03/06 00:55:50;;;;;;;14.35;7.80;;;4.80;93.60;;;;;;5114758;28;20051;-78
2022/03/06 00:58:16;;;;;;;14.52;8.38;;;4.80;93.60;;;;;;5114560;28;20051;-78
2022/03/06 01:00:46;;;;;;;16.17;8.15;;;4.90;93.70;;;;;;5114593;28;20039;-78
2022/03/06 01:03:16;;;;;;;16.20;8.57;;;4.90;93.50;;;;;;5097930;28;20051;-79
2022/03/06 01:05:42;;;;;;;17.48;8.05;;;5.00;93.50;;;;;;5114216;28;20123;-78
2022/03/06 01:08:08;;;;;;;15.30;8.30;;;5.00;93.50;;;;;;5097539;28;20036;-78
2022/03/06 01:10:37;;;;;;;15.60;8.00;;;5.10;93.40;;;;;;5114468;28;20113;-78
2022/03/06 01:13:04;;;;;;;17.67;8.10;;;5.10;93.50;;;;;;5097751;28;20126;-78
2022/03/06 01:15:29;;;;;;;14.32;7.53;;;5.00;93.40;;;;;;5097485;28;20051;-78
2022/03/06 01:17:55;;;;;;;14.82;8.10;;;5.00;93.50;;;;;;5114738;28;20389;-78
2022/03/06 01:20:23;;;;;;;13.75;7.10;;;5.00;93.60;;;;;;5115048;27;20466;-78
2022/03/06 01:22:49;;;;;;;12.25;7.40;;;5.00;93.70;;;;;;5100962;27;20086;-78
2022/03/06 01:25:15;;;;;;;12.88;7.60;;;5.10;93.70;;;;;;5117598;27;20145;-78
2022/03/06 01:27:41;;;;;;;14.07;7.47;;;5.10;93.70;;;;;;5117087;27;20085;-78
2022/03/06 01:30:09;;;;;;;12.82;7.30;;;5.10;93.80;;;;;;5117444;27;20083;-78
2022/03/06 01:32:35;;;;;;;12.98;7.28;;;5.10;93.80;;;;;;5101070;27;20050;-78
2022/03/06 01:35:00;;;;;;;15.30;7.70;;;5.00;93.90;;;;;;5117307;27;20140;-78
2022/03/06 01:37:26;;;;;;;16.60;8.52;;;4.90;93.80;;;;;;5116978;27;20468;-79
2022/03/06 01:39:52;;;;;;;16.20;8.55;;;5.00;93.90;;;;;;5117330;27;20549;-78
2022/03/06 01:42:18;;;;;;;13.60;7.57;;;4.90;93.90;;;;;;5116981;27;20038;-79
2022/03/06 01:44:50;;;;;;;15.55;7.80;;;5.10;94.00;;;;;;5116855;27;20057;-78
2022/03/06 01:47:31;;;;;;;15.10;7.97;;;5.10;93.90;;;;;;5117209;27;20569;-78
2022/03/06 01:49:56;;;;;;;12.80;7.60;;;5.00;93.80;;;;;;5116819;27;20483;-78
2022/03/06 01:52:22;;;;;;;13.55;7.22;;;4.90;93.90;;;;;;5099896;27;20055;-78
2022/03/06 01:54:48;;;;;;;15.90;8.10;;;5.00;93.90;;;;;;5100073;27;20416;-78
2022/03/06 01:57:13;;;;;;;16.15;7.97;;;5.10;93.80;;;;;;5100055;27;20047;-79
2022/03/06 01:59:39;;;;;;;15.02;7.95;;;5.10;93.70;;;;;;5117015;27;20051;-78
2022/03/06 02:02:05;;;;;;;15.43;7.93;;;5.10;93.70;;;;;;5099922;27;20482;-78
2022/03/06 02:04:30;;;;;;;18.33;9.00;;;5.10;93.70;;;;;;5082588;27;20054;-78
2022/03/06 02:06:56;;;;;;;15.07;7.55;;;5.20;93.60;;;;;;5099626;27;20051;-78
2022/03/06 02:09:22;;;;;;;14.82;7.93;;;5.00;93.80;;;;;;5116708;27;20129;-78
2022/03/06 02:12:21;;;;;;;12.43;7.55;;;5.00;93.90;;;;;;5116828;27;20470;-78
2022/03/06 02:14:33;;;;;;;15.77;8.30;;;5.00;94.00;;;;;;5117276;27;20427;-78
2022/03/06 02:16:59;;;;;;;15.73;7.22;;;4.90;93.80;;;;;;5116830;27;20043;-78
2022/03/06 02:19:24;;;;;;;10.13;6.60;;;4.80;94.10;;;;;;5116946;28;20047;-78
2022/03/06 02:21:50;;;;;;;13.13;6.97;;;4.80;94.20;;;;;;5116202;27;20095;-78
2022/03/06 02:24:16;;;;;;;12.75;7.13;;;4.80;94.10;;;;;;5116625;27;20039;-79
2022/03/06 02:26:41;;;;;;;16.27;7.20;;;4.90;94.10;;;;;;5099470;28;20043;-78
2022/03/06 02:29:07;;;;;;;12.75;6.88;;;4.90;94.40;;;;;;5099160;28;20055;-78
2022/03/06 02:31:33;;;;;;;13.57;6.60;;;4.90;94.10;;;;;;5116295;28;20043;-78
2022/03/06 02:33:59;;;;;;;12.63;6.13;;;4.80;94.00;;;;;;5082504;28;20047;-78
2022/03/06 02:36:24;;;;;;;14.43;6.20;;;4.80;94.20;;;;;;5116543;28;20484;-78
2022/03/06 02:38:50;;;;;;;10.25;5.30;;;4.90;94.20;;;;;;5116550;28;20130;-78
2022/03/06 02:41:17;;;;;;;11.43;5.68;;;4.90;94.20;;;;;;5116475;28;20043;-78
2022/03/06 02:43:43;;;;;;;8.85;4.95;;;4.90;94.00;;;;;;5099445;28;20108;-78
2022/03/06 02:46:09;;;;;;;8.93;5.03;;;4.80;94.20;;;;;;5082755;28;20054;-78
2022/03/06 02:48:34;;;;;;;9.98;5.13;;;4.80;94.20;;;;;;5116267;28;20039;-78
2022/03/06 02:51:00;;;;;;;11.80;5.40;;;4.80;94.20;;;;;;5120180;27;20051;-78
2022/03/06 02:53:26;;;;;;;11.73;5.38;;;4.90;94.10;;;;;;5120403;27;20043;-78
2022/03/06 02:55:52;;;;;;;10.07;4.93;;;4.80;94.30;;;;;;5103597;27;20047;-78
2022/03/06 02:58:18;;;;;;;11.15;4.93;;;4.80;94.20;;;;;;5103174;27;20492;-79
2022/03/06 03:00:43;;;;;;;11.20;5.13;;;4.80;94.10;;;;;;5103598;27;20046;-78
2022/03/06 03:03:09;;;;;;;11.55;4.50;;;4.90;94.00;;;;;;5120320;27;20046;-78
2022/03/06 03:05:35;;;;;;;10.23;4.55;;;4.80;94.00;;;;;;5119880;27;20043;-78
2022/03/06 03:08:01;;;;;;;7.05;3.65;;;4.90;94.00;;;;;;5103262;27;20039;-78
2022/03/06 03:10:27;;;;;;;10.57;4.05;;;4.80;94.00;;;;;;5103240;27;20394;-79
2022/03/06 03:12:54;;;;;;;8.95;4.20;;;4.70;94.00;;;;;;5103314;27;20058;-78
2022/03/06 03:15:20;;;;;;;5.88;3.58;;;4.70;94.10;;;;;;5120569;27;20390;-78
2022/03/06 03:17:46;;;;;;;9.18;3.80;;;4.70;94.10;;;;;;5120084;27;20046;-78
2022/03/06 03:20:13;;;;;;;11.07;4.35;;;4.70;94.00;;;;;;5120010;27;20074;-78
2022/03/06 03:22:39;;;;;;;11.55;4.50;;;4.60;94.20;;;;;;5120061;27;20043;-78
2022/03/06 03:25:06;;;;;;;12.43;4.95;;;4.70;94.30;;;;;;5102716;27;20504;-78
2022/03/06 03:27:33;;;;;;;8.43;3.97;;;4.70;94.00;;;;;;5119922;27;20444;-78
2022/03/06 03:29:58;;;;;;;10.75;4.35;;;4.60;94.20;;;;;;5119844;27;20478;-78
2022/03/06 03:32:24;;;;;;;12.30;4.30;;;4.60;94.20;;;;;;5119861;27;20039;-78
2022/03/06 03:34:50;;;;;;;10.50;4.72;;;4.70;94.10;;;;;;5119293;27;20077;-78
2022/03/06 03:37:16;;;;;;;9.93;4.60;;;4.70;94.10;;;;;;5119763;27;20042;-78
2022/03/06 03:39:42;;;;;;;9.52;4.35;;;4.60;94.20;;;;;;5119804;27;20086;-78
2022/03/06 03:42:07;;;;;;;8.88;4.03;;;4.60;94.20;;;;;;5119552;27;20461;-78
2022/03/06 03:44:33;;;;;;;11.98;5.07;;;4.60;94.30;;;;;;5102645;27;20083;-78
2022/03/06 03:46:58;;;;;;;9.48;4.18;;;4.70;94.10;;;;;;5119542;27;20390;-78
2022/03/06 03:49:24;;;;;;;9.05;4.63;;;4.60;94.20;;;;;;5101925;27;20436;-79
2022/03/06 03:51:51;;;;;;;12.30;4.82;;;4.60;94.30;;;;;;5102205;27;20061;-79
2022/03/06 03:54:17;;;;;;;10.45;4.55;;;4.70;94.30;;;;;;5119327;27;20047;-78
2022/03/06 03:56:43;;;;;;;8.18;4.03;;;4.70;94.30;;;;;;5119534;27;20073;-78
2022/03/06 03:59:09;;;;;;;10.43;4.53;;;4.60;94.40;;;;;;5119360;27;20052;-78
2022/03/06 04:01:34;;;;;;;10.98;4.25;;;4.60;94.30;;;;;;5119136;27;20491;-79
2022/03/06 04:04:00;;;;;;;10.20;4.20;;;4.60;94.40;;;;;;5084930;27;20043;-79
2022/03/06 04:06:26;;;;;;;9.05;4.30;;;4.70;94.40;;;;;;5085288;27;20051;-78
2022/03/06 04:08:51;;;;;;;11.70;4.65;;;4.70;94.30;;;;;;5101608;27;20074;-79
2022/03/06 04:11:17;;;;;;;11.30;4.55;;;4.70;94.20;;;;;;5102320;27;20046;-78
2022/03/06 04:13:43;;;;;;;9.70;4.20;;;4.70;94.10;;;;;;5119015;27;20047;-78
2022/03/06 04:16:09;;;;;;;10.10;3.97;;;4.60;94.20;;;;;;5119058;27;20050;-78
2022/03/06 04:18:35;;;;;;;9.27;3.85;;;4.60;94.30;;;;;;5119251;27;20397;-79
2022/03/06 04:21:00;;;;;;;6.90;3.70;;;4.60;94.30;;;;;;5115048;28;20056;-79
2022/03/06 04:23:26;;;;;;;11.80;4.03;;;4.60;94.20;;;;;;5098098;28;20051;-79
2022/03/06 04:25:52;;;;;;;11.23;3.92;;;4.50;94.30;;;;;;5115609;28;20097;-78
2022/03/06 04:28:18;;;;;;;7.82;3.83;;;4.40;94.30;;;;;;5098241;28;20127;-79
2022/03/06 04:30:43;;;;;;;11.25;3.95;;;4.40;94.20;;;;;;5098290;28;20044;-78
2022/03/06 04:33:09;;;;;;;11.40;4.43;;;4.50;94.30;;;;;;5115387;28;20070;-79
2022/03/06 04:35:35;;;;;;;8.23;3.90;;;4.50;94.20;;;;;;5097803;28;20052;-79
2022/03/06 04:38:00;;;;;;;7.18;3.40;;;4.40;94.30;;;;;;5115320;28;20506;-78
2022/03/06 04:40:26;;;;;;;9.18;3.67;;;4.30;94.30;;;;;;5114933;28;20043;-78
2022/03/06 04:42:52;;;;;;;8.35;3.80;;;4.30;94.40;;;;;;5115628;28;20059;-78
2022/03/06 04:45:17;;;;;;;11.32;3.55;;;4.30;94.30;;;;;;5114855;28;20047;-78
2022/03/06 04:47:43;;;;;;;10.15;3.78;;;4.20;94.30;;;;;;5114889;28;20051;-78
2022/03/06 04:50:09;;;;;;;8.80;3.88;;;4.30;94.40;;;;;;5114584;28;20386;-79
2022/03/06 04:52:35;;;;;;;9.23;3.70;;;4.10;94.30;;;;;;5114783;28;20054;-78
2022/03/06 04:55:00;;;;;;;6.20;3.47;;;4.00;94.40;;;;;;5097839;28;20425;-78
2022/03/06 04:57:26;;;;;;;7.10;3.20;;;3.90;94.60;;;;;;5115371;28;20044;-78
2022/03/06 04:59:52;;;;;;;7.60;3.45;;;3.90;94.60;;;;;;5097654;28;20055;-78
2022/03/06 05:02:17;;;;;;;7.65;3.85;;;3.90;94.60;;;;;;5114387;28;20039;-78
2022/03/06 05:04:43;;;;;;;8.48;3.63;;;3.90;94.70;;;;;;5114052;28;20139;-78
2022/03/06 05:07:09;;;;;;;8.93;3.90;;;3.80;94.70;;;;;;5114214;28;20054;-78
2022/03/06 05:09:34;;;;;;;8.65;3.50;;;3.80;94.60;;;;;;5096951;28;20086;-78
2022/03/06 05:12:00;;;;;;;6.90;3.95;;;3.80;94.60;;;;;;5096683;28;20036;-79
2022/03/06 05:14:26;;;;;;;7.18;3.30;;;3.60;94.60;;;;;;5114236;28;20044;-78
2022/03/06 05:16:52;;;;;;;8.70;3.67;;;3.50;94.70;;;;;;5114303;28;20048;-78
2022/03/06 05:19:17;;;;;;;7.85;3.50;;;3.50;94.90;;;;;;5114717;28;20054;-78
2022/03/06 05:21:44;;;;;;;9.20;3.55;;;3.40;94.80;;;;;;5113387;28;20188;-78
2022/03/06 05:24:10;;;;;;;7.47;3.53;;;3.40;94.80;;;;;;5114044;28;20051;-78
2022/03/06 05:26:36;;;;;;;9.48;3.75;;;3.40;94.90;;;;;;5114110;28;20130;-78
2022/03/06 05:29:03;;;;;;;8.35;3.75;;;3.40;94.90;;;;;;5096833;28;20184;-78
2022/03/06 05:31:29;;;;;;;10.93;3.65;;;3.40;94.90;;;;;;5114275;28;20052;-78
2022/03/06 05:33:55;;;;;;;8.85;3.42;;;3.30;94.90;;;;;;5096735;28;20486;-78
2022/03/06 05:36:22;;;;;;;12.20;3.78;;;3.30;94.90;;;;;;5096959;28;20051;-78
2022/03/06 05:38:48;;;;;;;9.13;3.88;;;3.30;95.00;;;;;;5113907;28;20047;-77
2022/03/06 05:41:14;;;;;;;7.45;3.45;;;3.30;95.10;;;;;;5113895;28;20047;-78
2022/03/06 05:43:39;;;;;;;6.28;3.17;;;3.30;95.00;;;;;;5114059;28;20039;-78
2022/03/06 05:46:05;;;;;;;7.25;3.40;;;3.30;95.10;;;;;;5113941;28;20055;-78
2022/03/06 05:48:31;;;;;;;11.48;3.97;;;3.30;95.20;;;;;;5114206;28;20040;-78
2022/03/06 05:50:58;;;;;;;7.97;3.50;;;3.30;95.10;;;;;;5096750;28;20134;-78
2022/03/06 05:53:24;;;;;;;7.72;3.70;;;3.30;95.20;;;;;;5113540;28;20052;-78
2022/03/06 05:55:50;;;;;;;8.77;3.33;;;3.30;95.00;;;;;;5113972;28;20051;-77
2022/03/06 05:58:15;;;;;;;8.07;3.50;;;3.20;95.00;;;;;;5079832;28;20048;-78
2022/03/06 06:00:41;;;;;;;5.88;3.22;;;3.10;95.00;;;;;;5113511;28;20149;-78
2022/03/06 06:03:06;;;;;;;11.25;3.30;;;3.10;95.10;;;;;;5113500;28;20051;-77
2022/03/06 06:05:32;;;;;;;7.88;3.42;;;3.00;95.10;;;;;;5096321;28;20394;-78
2022/03/06 06:07:58;;;;;;;7.78;3.50;;;3.00;95.30;;;;;;5113702;28;20471;-78
2022/03/06 06:10:23;;;;;;;10.80;3.45;;;2.90;95.20;;;;;;5079254;28;20047;-78
2022/03/06 06:12:49;;;;;;;7.88;3.10;;;2.90;95.30;;;;;;5096481;28;20040;-77
2022/03/06 06:15:15;;;;;;;11.35;3.67;;;3.00;95.40;;;;;;5096425;28;20489;-77
2022/03/06 06:17:40;;;;;;;7.85;3.20;;;3.10;95.50;;;;;;5113270;28;20478;-77
2022/03/06 06:20:08;;;;;;;8.15;3.17;;;3.10;95.40;;;;;;5096455;28;20043;-77
2022/03/06 06:22:34;;;;;;;6.28;3.72;;;3.20;95.30;;;;;;5079091;28;20376;-77
2022/03/06 06:25:02;;;;;;;7.85;3.90;;;3.20;95.30;;;;;;5113200;28;20052;-78
2022/03/06 06:27:27;;;;;;;5.75;3.20;;;3.20;95.20;;;;;;5096459;28;20051;-78
2022/03/06 06:29:54;;;;;;;8.35;3.15;;;3.20;95.10;;;;;;5113326;28;20390;-78
2022/03/06 06:32:20;;;;;;;9.43;3.97;;;3.10;95.00;;;;;;5112429;28;20040;-78
2022/03/06 06:34:46;;;;;;;8.00;3.22;;;3.10;95.10;;;;;;5078859;28;20043;-78
2022/03/06 06:37:13;;;;;;;7.63;3.35;;;3.10;95.20;;;;;;5112555;28;20052;-78
2022/03/06 06:39:39;;;;;;;8.05;3.40;;;3.10;95.30;;;;;;5079146;28;20071;-78
2022/03/06 06:42:05;;;;;;;6.82;3.58;;;3.00;95.20;;;;;;5112871;28;20498;-78
2022/03/06 06:44:31;;;;;;;6.00;3.38;;;3.00;95.20;;;;;;5113550;28;20118;-78
2022/03/06 06:46:57;;;;;;;7.95;3.40;;;3.10;95.40;;;;;;5096264;28;20047;-78
2022/03/06 06:49:23;;;;;;;5.70;3.10;;;3.10;95.30;;;;;;5095641;28;20096;-78
2022/03/06 06:51:49;;;;;;;6.53;3.55;;;3.10;95.30;;;;;;5112724;28;20055;-78
2022/03/06 06:54:15;;;;;;;5.70;3.40;;;3.20;95.40;;;;;;5095857;28;20048;-78
2022/03/06 06:56:42;;;;;;;6.03;3.15;;;3.20;95.20;;;;;;5095876;28;20039;-78
2022/03/06 06:59:08;;;;;;;4.63;2.90;;;3.30;95.20;;;;;;5095813;28;20044;-78
2022/03/06 07:01:33;;;;;;;5.05;3.20;;;3.30;95.20;;;;;;5112917;28;20046;-78
2022/03/06 07:03:59;;;;;;;8.50;3.55;;;3.40;95.00;;;;;;5095545;28;20047;-78
2022/03/06 07:06:25;;;;;;;7.65;3.30;;;3.40;94.90;;;;;;5095879;28;20044;-78
2022/03/06 07:08:51;;;;;;;8.13;3.80;;;3.40;94.80;;;;;;5112519;28;20048;-77
2022/03/06 07:11:16;;;;;;;9.93;3.13;;;3.50;94.90;;;;;;5095894;28;20043;-78
2022/03/06 07:13:42;;;;;;;8.68;3.30;;;3.50;94.70;;;;;;5112660;28;20044;-78
2022/03/06 07:16:08;;;;;;;8.77;3.05;;;3.50;94.70;;;;;;5079018;28;20062;-78
2022/03/06 07:18:33;;;;;;;6.90;2.78;;;3.50;94.50;;;;;;5078846;28;20061;-78
2022/03/06 07:21:02;;;;;;;9.02;3.08;;;3.60;94.50;;;;;;5112191;28;20056;-79
2022/03/06 07:23:31;;;;;;;5.57;2.72;;;3.70;94.30;;;;;;5095680;28;20040;-78
2022/03/06 07:25:57;;;;;;;5.75;2.83;;;3.70;94.30;;;;;;5095701;28;20460;-78
2022/03/06 07:28:23;;;;;;;8.55;2.92;;;3.70;94.20;;;;;;5095584;28;20052;-78
2022/03/06 07:30:48;;;;;;;6.18;2.65;;;3.80;94.20;;;;;;5112636;28;20080;-78
2022/03/06 07:33:14;;;;;;;7.63;2.70;;;3.90;94.00;;;;;;5078906;28;20130;-78
2022/03/06 07:35:40;;;;;;;4.78;2.20;;;4.00;93.80;;;;;;5096362;28;20549;-78
2022/03/06 07:38:07;;;;;;;5.25;2.38;;;4.00;93.90;;;;;;5099196;28;20072;-78
2022/03/06 07:40:33;;;;;;;4.47;2.40;;;4.00;93.50;;;;;;5082364;28;20048;-79
2022/03/06 07:42:59;;;;;;;3.28;2.17;;;3.90;93.70;;;;;;5116199;28;20047;-78
2022/03/06 07:45:25;;;;;;;5.70;2.42;;;4.00;93.50;;;;;;5099100;28;20036;-78
2022/03/06 07:47:50;;;;;;;3.55;2.17;;;4.10;93.40;;;;;;5115682;28;20047;-78
2022/03/06 07:50:16;;;;;;;8.43;2.47;;;4.20;93.50;;;;;;5099042;28;20044;-78
2022/03/06 07:52:42;;;;;;;3.75;2.30;;;4.20;93.00;;;;;;5098636;28;20105;-78
2022/03/06 07:55:08;;;;;;;3.95;2.40;;;4.20;93.10;;;;;;5115977;28;20040;-79
2022/03/06 07:57:34;;;;;;;4.35;2.20;;;4.20;93.10;;;;;;5099077;28;20090;-79
2022/03/06 08:00:00;;;;;;;4.68;2.20;;;4.20;93.00;;;;;;5098555;28;20079;-78
2022/03/06 08:02:25;;;;;;;10.25;2.70;;;4.10;92.70;;;;;;5115858;28;20044;-78
2022/03/06 08:04:52;;;;;;;7.68;3.45;;;4.00;93.00;;;;;;5081553;28;20134;-78
2022/03/06 08:07:18;;;;;;;10.27;3.78;;;4.10;93.10;;;;;;5098764;28;20452;-78
2022/03/06 08:09:43;;;;;;;7.28;3.28;;;4.30;92.90;;;;;;5098355;28;20039;-78
2022/03/06 08:12:09;;;;;;;6.97;3.35;;;4.30;92.60;;;;;;5098831;28;20446;-78
2022/03/06 08:14:35;;;;;;;5.88;2.55;;;4.50;92.60;;;;;;5115580;28;20043;-78
2022/03/06 08:17:00;;;;;;;4.97;2.47;;;4.40;92.10;;;;;;5098563;28;20126;-78
2022/03/06 08:19:26;;;;;;;5.20;2.20;;;4.40;92.40;;;;;;5081654;28;20043;-78
2022/03/06 08:21:52;;;;;;;4.15;2.28;;;4.50;92.30;;;;;;5081187;28;20441;-79
2022/03/06 08:24:18;;;;;;;4.65;1.77;;;4.60;91.80;;;;;;5099041;28;20047;-78
2022/03/06 08:26:44;;;;;;;5.60;1.75;;;4.60;91.40;;;;;;5098178;28;20042;-78
2022/03/06 08:29:09;;;;;;;4.93;1.92;;;4.40;91.50;;;;;;5115122;28;20486;-78
2022/03/06 08:31:35;;;;;;;5.28;2.03;;;4.40;91.50;;;;;;5098308;28;20100;-78
2022/03/06 08:34:01;;;;;;;6.78;2.03;;;4.50;91.60;;;;;;5080868;28;20054;-85
2022/03/06 08:36:26;;;;;;;6.10;2.10;;;4.60;91.30;;;;;;5115220;28;20051;-77
2022/03/06 08:38:52;;;;;;;3.55;1.88;;;4.60;91.20;;;;;;5115184;28;20372;-71
2022/03/06 08:41:18;;;;;;;4.10;2.10;;;4.70;91.20;;;;;;5115582;28;20066;-71
2022/03/06 08:43:46;;;;;;;3.63;1.63;;;4.70;91.20;;;;;;5116887;28;20044;-72
2022/03/06 08:46:12;;;;;;;5.93;2.10;;;4.50;91.10;;;;;;5122126;28;20085;-73
2022/03/06 08:48:38;;;;;;;4.80;1.75;;;4.60;90.90;;;;;;5117476;28;20044;-73
2022/03/06 08:51:05;;;;;;;5.47;1.90;;;4.70;91.20;;;;;;5114849;28;20122;-71
2022/03/06 08:53:31;;;;;;;5.78;2.10;;;4.70;91.00;;;;;;5099540;28;20047;-73
2022/03/06 08:55:58;;;;;;;4.45;2.00;;;4.60;90.90;;;;;;5115867;28;20090;-73
2022/03/06 08:58:24;;;;;;;5.47;2.00;;;4.70;90.60;;;;;;5115002;28;20040;-73
2022/03/06 09:00:49;;;;;;;5.20;1.88;;;4.60;90.80;;;;;;5115436;28;20396;-73
2022/03/06 09:03:15;;;;;;;3.65;2.10;;;4.60;90.90;;;;;;5115657;28;20043;-76
2022/03/06 09:05:41;;;;;;;3.45;1.92;;;4.80;91.20;;;;;;5114197;28;20055;-74
2022/03/06 09:08:11;;;;;;;7.82;1.90;;;5.00;91.00;;;;;;5114387;28;20062;-74
2022/03/06 09:10:38;;;;;;;5.50;1.90;;;5.30;90.80;;;;;;5115818;28;20048;-74
2022/03/06 09:13:05;;;;;;;4.13;1.73;;;5.40;90.50;;;;;;5114305;28;20047;-74
2022/03/06 09:15:31;;;;;;;7.45;2.00;;;5.50;90.50;;;;;;5115770;28;20090;-77
2022/03/06 09:17:57;;;;;;;3.45;1.95;;;5.60;90.20;;;;;;5114341;28;20060;-79
2022/03/06 09:20:23;;;;;;;6.03;2.13;;;5.50;90.10;;;;;;5114170;28;20059;-79
2022/03/06 09:22:49;;;;;;;9.32;2.13;;;5.30;90.00;;;;;;5114258;28;20051;-79
2022/03/06 09:25:15;;;;;;;5.13;2.13;;;5.40;90.30;;;;;;5114532;28;20443;-79
2022/03/06 09:27:42;;;;;;;6.25;2.05;;;5.40;90.10;;;;;;5097207;28;20047;-77
2022/03/06 09:30:08;;;;;;;4.53;2.00;;;5.50;90.80;;;;;;5114220;28;20131;-79
2022/03/06 09:32:34;;;;;;;6.38;2.40;;;5.70;90.40;;;;;;5097166;28;20056;-78
2022/03/06 09:35:00;;;;;;;5.20;1.70;;;5.80;90.20;;;;;;5080898;28;20051;-77
2022/03/06 09:37:26;;;;;;;5.68;2.25;;;5.90;90.00;;;;;;5119222;27;20040;-78
2022/03/06 09:39:51;;;;;;;3.35;1.75;;;5.90;89.20;;;;;;5115114;27;20108;-78
2022/03/06 09:42:18;;;;;;;5.63;2.15;;;5.80;88.60;;;;;;5132581;27;20047;-78
2022/03/06 09:44:46;;;;;;;5.25;2.13;;;5.80;89.70;;;;;;5096811;28;20095;-79
2022/03/06 09:47:12;;;;;;;4.68;1.77;;;5.90;89.00;;;;;;5096589;28;20100;-78
2022/03/06 09:49:38;;;;;;;5.68;1.77;;;6.00;88.70;;;;;;5128294;27;20359;-78
2022/03/06 09:52:04;;;;;;;5.18;2.17;;;6.10;88.80;;;;;;5134162;27;20053;-78
2022/03/06 09:54:30;;;;;;;8.02;1.77;;;6.10;88.20;;;;;;5113921;27;20050;-76
2022/03/06 09:56:57;;;;;;;8.70;2.35;;;6.20;88.30;;;;;;5117719;27;20112;-78
2022/03/06 09:59:23;;;;;;;3.60;1.50;;;6.30;89.00;;;;;;5117724;27;20054;-78
2022/03/06 10:01:49;;;;;;;4.10;1.85;;;6.30;88.10;;;;;;5124038;27;20092;-79
2022/03/06 10:04:24;;;;;;;3.67;1.73;;;6.40;87.80;;;;;;5131997;27;20050;-79
2022/03/06 10:07:05;;;;;;;5.20;1.88;;;6.50;88.10;;;;;;5115460;27;20096;-80
2022/03/06 10:09:32;;;;;;;4.15;1.90;;;6.50;88.20;;;;;;5116352;27;20458;-79
2022/03/06 10:11:58;;;;;;;4.85;2.15;;;6.50;87.40;;;;;;5134432;27;20482;-79
2022/03/06 10:14:35;;;;;;;5.13;2.00;;;6.60;88.10;;;;;;5133719;27;20043;-78
2022/03/06 10:17:17;;;;;;;3.75;1.92;;;6.80;87.40;;;;;;5116727;27;20104;-78
2022/03/06 10:19:49;;;;;;;3.95;1.67;;;6.90;87.30;;;;;;5116351;27;20051;-81
2022/03/06 10:22:14;;;;;;;6.53;2.15;;;7.00;86.70;;;;;;5112544;28;20064;-79
2022/03/06 10:25:08;;;;;;;8.07;1.85;;;7.30;86.40;;;;;;5115857;27;20517;-78
2022/03/06 10:27:57;;;;;;;6.45;1.98;;;7.60;86.50;;;;;;5131114;27;20112;-80
2022/03/06 10:30:37;;;;;;;5.72;1.92;;;7.90;85.60;;;;;;5115980;28;20046;-79
2022/03/06 10:33:11;;;;;;;8.85;3.55;;;8.10;85.10;;;;;;5117436;28;20110;-79
2022/03/06 10:35:42;;;;;;;5.18;2.28;;;7.90;85.40;;;;;;5112701;28;20050;-78
2022/03/06 10:38:28;;;;;;;5.32;2.40;;;8.00;85.30;;;;;;5096424;28;20047;-78
2022/03/06 10:40:55;;;;;;;4.82;1.95;;;8.00;85.00;;;;;;5096410;28;20462;-78
2022/03/06 10:43:24;;;;;;;5.68;2.30;;;8.20;85.50;;;;;;5095127;28;20052;-85
2022/03/06 10:46:00;;;;;;;93.75;5.75;;;8.40;85.10;;;;;;5128309;28;20044;-78
2022/03/06 10:48:26;;;;;;;3.75;2.20;;;7.80;85.20;;;;;;5078927;28;20128;-76
2022/03/06 10:50:59;;;;;;;85.47;5.38;;;7.40;86.80;;;;;;5129626;28;20123;-76
2022/03/06 10:53:25;;;;;;;26.02;3.65;;;7.20;86.40;;;;;;5130426;28;20084;-76
2022/03/06 10:55:53;;;;;;;6.10;2.05;;;7.10;86.70;;;;;;5111443;28;20100;-75
2022/03/06 10:58:20;;;;;;;5.20;2.28;;;7.20;87.10;;;;;;5128098;28;20082;-75
2022/03/06 11:00:47;;;;;;;6.28;2.28;;;7.60;86.90;;;;;;5131098;28;20534;-75
2022/03/06 11:03:13;;;;;;;6.47;2.30;;;8.20;86.50;;;;;;5116097;28;20509;-75
2022/03/06 11:05:44;;;;;;;5.45;2.28;;;8.60;86.00;;;;;;5121483;28;20680;-77
2022/03/06 11:08:15;;;;;;;5.35;2.28;;;9.10;84.50;;;;;;5118340;28;20047;-75
2022/03/06 11:10:42;;;;;;;4.93;2.25;;;9.50;84.30;;;;;;5117935;27;20047;-75
2022/03/06 11:13:12;;;;;;;4.80;2.17;;;10.00;83.60;;;;;;5121618;27;20066;-75
2022/03/06 11:15:39;;;;;;;4.90;1.92;;;10.10;82.00;;;;;;5137094;27;20047;-73
2022/03/06 11:18:06;;;;;;;4.70;1.90;;;9.90;82.10;;;;;;5122161;27;20085;-74
2022/03/06 11:20:33;;;;;;;3.95;1.95;;;9.90;82.60;;;;;;5097521;28;20054;-76
2022/03/06 11:23:36;;;;;;;7.00;2.40;;;10.10;82.50;;;;;;5114554;28;20055;-74
2022/03/06 11:26:14;;;;;;;4.00;2.17;;;10.40;81.60;;;;;;5128993;27;20104;-75
2022/03/06 11:29:10;;;;;;;6.32;2.10;;;10.30;80.90;;;;;;5123028;27;20100;-76
2022/03/06 11:31:47;;;;;;;6.20;2.30;;;10.00;81.20;;;;;;5134824;27;20039;-76
2022/03/06 11:34:24;;;;;;;5.00;2.00;;;9.90;82.40;;;;;;5135030;27;20465;-75
2022/03/06 11:36:50;;;;;;;4.85;2.03;;;9.90;82.50;;;;;;5136872;27;20047;-75
2022/03/06 11:39:31;;;;;;;4.13;2.40;;;10.20;82.10;;;;;;5136709;27;20097;-75
2022/03/06 11:42:00;;;;;;;5.28;2.22;;;10.50;81.80;;;;;;5136706;27;20099;-74
2022/03/06 11:44:48;;;;;;;4.70;2.35;;;10.70;81.50;;;;;;5137751;27;20496;-76
2022/03/06 11:47:38;;;;;;;3.65;1.70;;;10.40;81.20;;;;;;5140336;27;20055;-80
2022/03/06 11:50:05;;;;;;;5.40;2.30;;;10.40;81.00;;;;;;5104413;27;20055;-78
2022/03/06 11:52:42;;;;;;;9.05;2.95;;;10.30;80.80;;;;;;5136596;27;20047;-78
2022/03/06 11:55:32;;;;;;;7.05;2.13;;;10.10;82.20;;;;;;5119710;27;20047;-78
2022/03/06 11:57:58;;;;;;;4.10;2.33;;;10.00;81.90;;;;;;5119015;27;20367;-75
2022/03/06 12:00:27;;;;;;;6.63;2.03;;;10.00;81.50;;;;;;5119230;27;20099;-75
2022/03/06 12:02:55;;;;;;;7.05;2.30;;;9.70;81.80;;;;;;5135986;27;20057;-74
2022/03/06 12:05:41;;;;;;;5.97;2.10;;;9.80;82.50;;;;;;5140058;27;20097;-75
2022/03/06 12:08:14;;;;;;;6.53;2.33;;;9.80;82.30;;;;;;5121362;27;20059;-74
2022/03/06 12:10:40;;;;;;;5.00;2.38;;;9.90;82.10;;;;;;5135996;27;20421;-75
2022/03/06 12:13:20;;;;;;;7.45;2.47;;;10.00;82.00;;;;;;5135318;27;20044;-75
2022/03/06 12:16:04;;;;;;;6.63;2.40;;;10.00;82.00;;;;;;5133852;27;20442;-74
2022/03/06 12:18:30;;;;;;;5.53;2.20;;;10.00;82.20;;;;;;5134372;27;20039;-74
2022/03/06 12:20:56;;;;;;;7.05;2.90;;;9.70;82.50;;;;;;5136925;27;20120;-75
2022/03/06 12:23:28;;;;;;;6.43;2.42;;;9.60;82.40;;;;;;5122730;27;20086;-75
2022/03/06 12:25:58;;;;;;;4.72;2.55;;;10.00;82.50;;;;;;5139462;27;20047;-75
2022/03/06 12:28:31;;;;;;;7.32;2.45;;;9.80;81.70;;;;;;5139322;27;20131;-75
2022/03/06 12:30:57;;;;;;;6.25;2.53;;;9.70;82.20;;;;;;5139297;27;20474;-75
2022/03/06 12:33:40;;;;;;;7.22;2.42;;;9.60;82.60;;;;;;5139138;27;20054;-75
2022/03/06 12:36:07;;;;;;;5.40;2.20;;;9.90;82.40;;;;;;5122040;27;20129;-74
2022/03/06 12:38:34;;;;;;;6.90;2.70;;;9.90;82.70;;;;;;5115221;27;20058;-76
2022/03/06 12:41:00;;;;;;;5.70;2.20;;;10.20;83.20;;;;;;5137620;27;20042;-76
2022/03/06 12:43:30;;;;;;;10.18;2.30;;;10.70;82.10;;;;;;5120529;27;20397;-77
2022/03/06 12:45:56;;;;;;;4.80;2.33;;;10.90;81.40;;;;;;5105168;27;20477;-75
2022/03/06 12:48:22;;;;;;;5.60;2.20;;;10.60;81.10;;;;;;5121473;27;20042;-75
2022/03/06 12:50:48;;;;;;;6.55;2.42;;;10.40;81.70;;;;;;5139007;27;20043;-73
2022/03/06 12:53:17;;;;;;;6.00;2.42;;;10.70;82.50;;;;;;5138698;27;20397;-74
2022/03/06 12:55:44;;;;;;;7.65;2.42;;;10.80;81.30;;;;;;5156635;27;20485;-75